Time;durP1;ratioP1;P1;durP2;ratioP2;P2;SDS_P1;SDS_P2;PMS_P1;PMS_P2;Temp;Humidity;BMP_temperature;BMP_pressure;BME280_temperature;BME280_humidity;BME280_pressure;Samples;Min_cycle;Max_cycle;Signal;HPM_P1;HPM_P2
2023/04/06 00:00:57;;;;;;;6.03;4.97;;;;;;;-2.74;100.00;93093.69;2073679;28;20029;-82
2023/04/06 00:01:58;;;;;;;5.93;5.32;;;;;;;-2.63;100.00;93081.66;2070624;28;20480;-85
2023/04/06 00:03:00;;;;;;;6.15;5.55;;;;;;;-2.78;100.00;93090.97;2072606;28;20042;-85
2023/04/06 00:04:04;;;;;;;7.53;5.10;;;;;;;-2.88;100.00;93088.06;2080654;28;20116;-82
2023/04/06 00:05:09;;;;;;;6.60;5.03;;;;;;;-2.90;100.00;93082.38;2073864;28;20034;-83
2023/04/06 00:06:11;;;;;;;7.28;5.50;;;;;;;-2.96;100.00;93079.25;2081331;28;20025;-85
2023/04/06 00:07:15;;;;;;;7.68;5.45;;;;;;;-3.02;100.00;93083.19;2072922;28;20037;-83
2023/04/06 00:08:17;;;;;;;6.00;5.30;;;;;;;-2.95;100.00;93083.38;2081620;28;20037;-83
2023/04/06 00:09:21;;;;;;;7.35;5.57;;;;;;;-2.90;100.00;93074.53;2081530;28;20033;-83
2023/04/06 00:10:23;;;;;;;8.40;5.55;;;;;;;-2.91;100.00;93079.00;2073922;28;20037;-82
2023/04/06 00:11:27;;;;;;;6.60;5.38;;;;;;;-2.99;100.00;93071.31;2073379;28;20026;-83
2023/04/06 00:12:29;;;;;;;6.10;5.45;;;;;;;-3.03;100.00;93071.19;2073680;28;20033;-82
2023/04/06 00:13:38;;;;;;;7.15;5.47;;;;;;;-2.96;100.00;93070.66;2072991;28;20116;-83
2023/04/06 00:14:43;;;;;;;6.63;5.35;;;;;;;-2.86;100.00;93081.38;2082021;28;20405;-83
2023/04/06 00:15:46;;;;;;;6.22;5.10;;;;;;;-2.85;100.00;93080.31;2076420;28;20084;-83
2023/04/06 00:16:50;;;;;;;6.47;5.30;;;;;;;-2.86;100.00;93080.63;2077652;28;20040;-84
2023/04/06 00:18:00;;;;;;;6.18;5.32;;;;;;;-2.86;100.00;93072.78;2079437;28;20025;-82
2023/04/06 00:19:14;;;;;;;6.53;5.32;;;;;;;-3.05;100.00;93074.16;2083160;28;20021;-84
2023/04/06 00:20:19;;;;;;;6.20;5.22;;;;;;;-3.00;100.00;93067.94;2070368;28;20042;-82
2023/04/06 00:21:32;;;;;;;6.55;5.50;;;;;;;-3.05;100.00;93071.53;2072416;28;20061;-83
2023/04/06 00:22:48;;;;;;;6.65;5.50;;;;;;;-3.11;100.00;93074.72;2075895;28;20029;-85
2023/04/06 00:23:49;;;;;;;8.60;5.22;;;;;;;-3.21;100.00;93075.91;2075142;28;20025;-84
2023/04/06 00:24:54;;;;;;;6.18;5.50;;;;;;;-3.14;100.00;93070.91;2072280;28;20042;-84
2023/04/06 00:26:01;;;;;;;7.75;5.43;;;;;;;-3.08;100.00;93074.81;2068844;28;20023;-85
2023/04/06 00:27:09;;;;;;;5.72;5.07;;;;;;;-3.00;100.00;93072.41;2074313;28;20083;-84
2023/04/06 00:28:24;;;;;;;6.22;5.38;;;;;;;-3.08;100.00;93069.56;2076177;28;20375;-84
2023/04/06 00:29:38;;;;;;;;;;;;;;;;;;;;;
2023/04/06 00:30:52;;;;;;;7.30;5.25;;;;;;;-3.17;100.00;93071.56;2094113;28;20473;-83
2023/04/06 00:32:05;;;;;;;5.43;4.93;;;;;;;-3.09;100.00;93081.13;2083370;28;20025;-83
2023/04/06 00:33:09;;;;;;;7.20;5.63;;;;;;;-3.06;100.00;93082.34;2066556;28;20037;-83
2023/04/06 00:34:15;;;;;;;6.55;5.72;;;;;;;-3.09;100.00;93073.28;2073725;28;20180;-84
2023/04/06 00:35:29;;;;;;;7.80;5.37;;;;;;;-3.23;100.00;93072.13;2074074;28;20049;-83
2023/04/06 00:36:31;;;;;;;8.25;5.43;;;;;;;-3.24;100.00;93065.38;2069766;28;21023;-85
2023/04/06 00:37:32;;;;;;;6.85;5.63;;;;;;;-3.12;100.00;93068.72;2066088;28;20030;-83
2023/04/06 00:38:45;;;;;;;6.03;5.38;;;;;;;-3.14;100.00;93070.16;2069594;28;20026;-83
2023/04/06 00:39:47;;;;;;;;;;;;;;;-3.25;100.00;93066.47;2076373;28;20481;-83
2023/04/06 00:40:50;;;;;;;8.48;5.65;;;;;;;-3.30;100.00;93064.84;2073041;28;19913;-83
2023/04/06 00:41:52;;;;;;;6.60;5.50;;;;;;;-3.28;100.00;93067.13;2080701;28;20371;-83
2023/04/06 00:43:13;;;;;;;;;;;;;;;;;;;;;
2023/04/06 00:44:22;;;;;;;7.65;5.60;;;;;;;-3.25;100.00;93066.47;2079930;28;20033;-83
2023/04/06 00:45:23;;;;;;;7.30;5.63;;;;;;;-3.24;100.00;93063.53;2087796;28;20433;-83
2023/04/06 00:46:24;;;;;;;6.28;5.60;;;;;;;-3.26;100.00;93063.09;2072719;28;20044;-83
2023/04/06 00:47:45;;;;;;;7.35;5.60;;;;;;;-3.38;100.00;93056.06;2063926;28;20080;-83
2023/04/06 00:48:47;;;;;;;8.73;5.95;;;;;;;-3.45;100.00;93055.84;2070017;28;20214;-84
2023/04/06 00:49:56;;;;;;;8.23;6.32;;;;;;;-3.50;100.00;93057.91;2073860;28;20033;-84
2023/04/06 00:51:02;;;;;;;7.97;5.57;;;;;;;-3.44;100.00;93059.19;2083112;28;20502;-82
2023/04/06 00:52:09;;;;;;;7.82;6.25;;;;;;;-3.31;100.00;93058.84;2065444;28;20027;-84
2023/04/06 00:53:13;;;;;;;9.07;5.95;;;;;;;-3.16;100.00;93054.81;2068322;28;20090;-83
2023/04/06 00:54:33;;;;;;;6.50;5.80;;;;;;;-3.27;100.00;93056.34;2074068;28;20426;-84
2023/04/06 00:55:39;;;;;;;10.27;6.32;;;;;;;-3.37;100.00;93052.34;2071767;28;20402;-83
2023/04/06 00:56:43;;;;;;;8.82;6.00;;;;;;;-3.44;100.00;93049.50;2067518;28;20025;-84
2023/04/06 00:57:48;;;;;;;7.72;5.60;;;;;;;-3.43;100.00;93055.50;2067054;28;20053;-83
2023/04/06 00:58:52;;;;;;;7.70;6.20;;;;;;;-3.53;100.00;93053.34;2074553;28;20061;-84
2023/04/06 00:59:54;;;;;;;7.30;5.90;;;;;;;-3.47;100.00;93046.78;2066375;28;20206;-83
2023/04/06 01:01:05;;;;;;;7.93;5.85;;;;;;;-3.56;100.00;93058.16;2064924;28;20130;-83
2023/04/06 01:02:25;;;;;;;8.10;6.53;;;;;;;-3.45;100.00;93057.69;2065319;28;20122;-83
2023/04/06 01:03:32;;;;;;;9.73;6.00;;;;;;;-3.46;100.00;93046.47;2082614;28;20136;-83
2023/04/06 01:04:45;;;;;;;10.63;6.60;;;;;;;-3.59;100.00;93048.34;2081758;28;20460;-83
2023/04/06 01:05:48;;;;;;;8.75;5.85;;;;;;;-3.60;100.00;93057.28;2081039;28;20481;-84
2023/04/06 01:06:51;;;;;;;7.85;5.90;;;;;;;-3.62;100.00;93046.38;2071315;28;20061;-82
2023/04/06 01:07:56;;;;;;;7.40;5.90;;;;;;;-3.55;100.00;93051.06;2059653;28;20034;-83
2023/04/06 01:09:03;;;;;;;7.93;6.22;;;;;;;-3.59;100.00;93045.72;2065959;28;20514;-84
2023/04/06 01:10:39;;;;;;;7.53;5.30;;;;;;;-3.59;100.00;93050.19;2070650;28;20144;-83
2023/04/06 01:11:43;;;;;;;5.90;5.25;;;;;;;-3.37;100.00;93046.34;2065857;28;20049;-84
2023/04/06 01:13:03;;;;;;;8.13;6.00;;;;;;;-3.51;100.00;93045.91;2073556;28;20064;-84
2023/04/06 01:14:08;;;;;;;9.80;5.82;;;;;;;-3.35;100.00;93050.16;2080355;28;20033;-85
2023/04/06 01:15:11;;;;;;;7.55;5.60;;;;;;;-3.36;100.00;93051.25;2076194;28;20040;-83
2023/04/06 01:16:16;;;;;;;9.00;5.93;;;;;;;-3.47;100.00;93052.78;2073352;28;20057;-84
2023/04/06 01:17:28;;;;;;;7.38;5.75;;;;;;;-3.45;100.00;93049.84;2071390;28;20028;-86
2023/04/06 01:18:32;;;;;;;6.55;5.75;;;;;;;-3.45;100.00;93055.84;2075728;28;20422;-83
2023/04/06 01:19:33;;;;;;;7.03;5.47;;;;;;;-3.47;100.00;93049.41;2080873;28;20029;-84
2023/04/06 01:21:21;;;;;;;6.85;5.50;;;;;;;-3.35;100.00;93049.38;2089492;28;20039;-83
2023/04/06 01:22:27;;;;;;;8.85;5.75;;;;;;;-3.40;100.00;93042.53;2083061;28;20032;-83
2023/04/06 01:23:41;;;;;;;;;;;;;;;;;;;;;
2023/04/06 01:24:48;;;;;;;;;;;;;;;-3.67;100.00;93038.00;2085434;28;21467;-85
2023/04/06 01:25:55;;;;;;;7.05;5.38;;;;;;;-3.68;100.00;93039.88;2074623;28;19964;-84
2023/04/06 01:27:12;;;;;;;6.65;5.28;;;;;;;-3.67;100.00;93041.38;2065239;28;20045;-83
2023/04/06 01:28:24;;;;;;;6.90;5.70;;;;;;;-3.71;100.00;93040.50;2076871;28;20087;-85
2023/04/06 01:29:33;;;;;;;11.05;6.03;;;;;;;-3.53;100.00;93043.66;2072782;28;20096;-85
2023/04/06 01:30:44;;;;;;;8.43;5.65;;;;;;;-3.54;100.00;93036.91;2070215;28;20038;-84
2023/04/06 01:31:59;;;;;;;7.25;5.70;;;;;;;-3.61;100.00;93037.44;2078755;28;20041;-85
2023/04/06 01:33:11;;;;;;;6.47;5.30;;;;;;;-3.70;100.00;93039.41;2079205;28;20509;-84
2023/04/06 01:34:32;;;;;;;6.53;5.43;;;;;;;-3.68;100.00;93032.03;2063975;28;20038;-84
2023/04/06 01:35:40;;;;;;;10.10;5.78;;;;;;;-3.72;100.00;93030.41;2068889;28;20049;-84
2023/04/06 01:36:55;;;;;;;6.15;5.35;;;;;;;-3.80;100.00;93032.78;2064326;28;20098;-84
2023/04/06 01:38:04;;;;;;;7.05;5.38;;;;;;;-3.73;100.00;93026.25;2067986;28;20040;-85
2023/04/06 01:39:10;;;;;;;8.30;6.03;;;;;;;-3.74;100.00;93029.94;2065724;28;20038;-84
2023/04/06 01:40:20;;;;;;;7.82;5.63;;;;;;;-3.74;100.00;93030.72;2065432;28;20038;-84
2023/04/06 01:41:26;;;;;;;6.63;5.75;;;;;;;-3.75;100.00;93026.59;2074090;28;20053;-85
2023/04/06 01:42:54;;;;;;;7.20;5.65;;;;;;;-3.84;100.00;93033.78;2088044;28;20060;-83
2023/04/06 01:44:20;;;;;;;6.60;5.40;;;;;;;-3.73;100.00;93029.66;2085728;28;20469;-84
2023/04/06 01:45:32;;;;;;;8.88;5.90;;;;;;;-3.76;100.00;93029.53;2081442;28;20142;-85
2023/04/06 01:46:58;;;;;;;;;;;;;;;;;;;;;
2023/04/06 01:48:37;;;;;;;7.25;5.78;;;;;;;-3.86;100.00;93028.13;2086710;28;20537;-84
2023/04/06 01:49:44;;;;;;;6.78;6.18;;;;;;;-3.89;100.00;93029.53;2075323;28;20144;-84
2023/04/06 01:52:51;;;;;;;6.53;5.90;;;;;;;-4.01;100.00;93024.31;2067714;28;20034;-84
2023/04/06 01:54:12;;;;;;;7.00;5.68;;;;;;;-3.96;100.00;93025.94;2079624;28;20040;-85
2023/04/06 01:55:41;;;;;;;;;;;;;;;-3.85;100.00;93029.66;2076643;28;20034;-85
2023/04/06 01:56:43;;;;;;;7.90;5.28;;;;;;;-3.96;100.00;93031.16;2081357;28;19974;-85
2023/04/06 01:57:56;;;;;;;8.75;5.72;;;;;;;-3.94;100.00;93027.16;2059945;28;20023;-86
2023/04/06 01:59:08;;;;;;;7.00;5.82;;;;;;;-3.84;100.00;93020.72;2063318;28;20046;-84
2023/04/06 02:00:28;;;;;;;7.43;5.43;;;;;;;-3.97;100.00;93021.81;2076192;28;20053;-86
2023/04/06 02:01:32;;;;;;;7.30;5.63;;;;;;;-3.96;100.00;93024.09;2081278;28;20531;-84
2023/04/06 02:02:45;;;;;;;7.00;5.88;;;;;;;-4.00;100.00;93018.00;2077220;28;20025;-84
2023/04/06 02:03:52;;;;;;;9.50;5.70;;;;;;;-4.00;100.00;93015.38;2065486;28;20041;-84
2023/04/06 02:05:09;;;;;;;6.90;5.78;;;;;;;-4.08;100.00;93027.47;2056314;28;20130;-84
2023/04/06 02:06:17;;;;;;;6.50;5.68;;;;;;;-4.11;100.00;93024.75;2060225;28;20022;-84
2023/04/06 02:07:22;;;;;;;7.25;5.40;;;;;;;-4.21;100.00;93027.78;2057088;28;20117;-85
2023/04/06 02:08:26;;;;;;;6.95;6.25;;;;;;;-4.17;100.00;93021.59;2064416;28;20046;-84
2023/04/06 02:09:35;;;;;;;6.85;5.70;;;;;;;-4.14;100.00;93033.97;2055662;28;20484;-85
2023/04/06 02:10:37;;;;;;;8.05;6.32;;;;;;;-4.15;100.00;93029.09;2064168;28;20034;-85
2023/04/06 02:11:48;;;;;;;6.43;5.78;;;;;;;-4.15;100.00;93023.88;2062657;28;20489;-85
2023/04/06 02:12:57;;;;;;;7.47;6.03;;;;;;;-4.14;100.00;93031.38;2057421;28;20034;-84
2023/04/06 02:14:07;;;;;;;7.20;5.90;;;;;;;-4.07;100.00;93030.84;2064765;28;20470;-84
2023/04/06 02:15:09;;;;;;;6.63;5.80;;;;;;;-4.07;100.00;93026.38;2063917;28;20070;-85
2023/04/06 02:16:11;;;;;;;7.60;6.03;;;;;;;-4.04;100.00;93024.94;2060005;28;20031;-85
2023/04/06 02:17:17;;;;;;;9.30;6.07;;;;;;;-4.06;100.00;93025.28;2055841;28;20372;-85
2023/04/06 02:18:21;;;;;;;6.38;5.78;;;;;;;-4.09;100.00;93023.31;2056572;28;20515;-84
2023/04/06 02:19:23;;;;;;;10.15;6.18;;;;;;;-4.08;100.00;93024.88;2063152;28;20034;-85
2023/04/06 02:20:30;;;;;;;7.15;6.35;;;;;;;-4.14;100.00;93022.78;2066394;28;20152;-84
2023/04/06 02:21:32;;;;;;;6.47;5.70;;;;;;;-4.12;100.00;93026.59;2053257;28;20456;-84
2023/04/06 02:22:35;;;;;;;9.60;6.07;;;;;;;-4.07;100.00;93026.38;2063933;28;20033;-84
2023/04/06 02:23:38;;;;;;;7.13;6.35;;;;;;;-4.17;100.00;93026.81;2060626;28;20038;-84
2023/04/06 02:24:40;;;;;;;8.50;6.15;;;;;;;-4.06;100.00;93027.13;2063878;28;20109;-85
2023/04/06 02:25:41;;;;;;;6.72;6.03;;;;;;;-4.02;100.00;93022.03;2063913;28;20026;-85
2023/04/06 02:26:51;;;;;;;7.18;5.97;;;;;;;-4.03;100.00;93025.72;2055273;28;20026;-86
2023/04/06 02:27:52;;;;;;;7.10;5.63;;;;;;;-4.03;100.00;93015.28;2064916;28;20026;-84
2023/04/06 02:29:07;;;;;;;7.53;5.80;;;;;;;-4.14;100.00;93020.94;2069053;28;20041;-84
2023/04/06 02:30:11;;;;;;;6.28;5.68;;;;;;;-4.13;100.00;93021.69;2065896;28;20078;-85
2023/04/06 02:31:15;;;;;;;7.70;5.72;;;;;;;-4.16;100.00;93025.72;2063557;28;20026;-85
2023/04/06 02:32:26;;;;;;;7.18;5.70;;;;;;;-4.31;100.00;93019.28;2057957;28;20488;-85
2023/04/06 02:33:30;;;;;;;6.75;5.85;;;;;;;-4.37;100.00;93017.97;2057173;28;20104;-85
2023/04/06 02:34:32;;;;;;;6.72;6.13;;;;;;;-4.36;100.00;93024.72;2055897;28;20497;-86
2023/04/06 02:35:33;;;;;;;8.02;5.55;;;;;;;-4.33;100.00;93018.84;2064191;28;20716;-85
2023/04/06 02:36:36;;;;;;;10.85;6.60;;;;;;;-4.31;100.00;93015.91;2061380;28;20034;-85
2023/04/06 02:37:41;;;;;;;7.05;5.93;;;;;;;-4.32;100.00;93019.63;2063227;28;20018;-85
2023/04/06 02:38:44;;;;;;;6.10;5.53;;;;;;;-4.32;100.00;93019.63;2055177;28;20031;-85
2023/04/06 02:39:46;;;;;;;7.22;6.35;;;;;;;-4.26;100.00;93015.69;2056899;28;20480;-84
2023/04/06 02:40:51;;;;;;;7.20;6.07;;;;;;;-4.11;100.00;93011.69;2053902;28;20030;-85
2023/04/06 02:41:55;;;;;;;8.98;6.38;;;;;;;-4.15;100.00;93022.03;2064038;28;20426;-84
2023/04/06 02:42:56;;;;;;;7.68;6.03;;;;;;;-4.22;100.00;93019.19;2064093;28;20082;-86
2023/04/06 02:44:01;;;;;;;8.18;5.90;;;;;;;-4.25;100.00;93019.84;2079104;28;20033;-84
2023/04/06 02:45:05;;;;;;;7.20;5.90;;;;;;;-4.25;100.00;93012.03;2077640;28;20541;-84
2023/04/06 02:46:15;;;;;;;9.20;5.85;;;;;;;-4.35;100.00;93015.78;2060006;28;20022;-85
2023/04/06 02:47:16;;;;;;;7.88;6.10;;;;;;;-4.27;100.00;93023.84;2062492;28;20026;-85
2023/04/06 02:48:20;;;;;;;7.75;5.63;;;;;;;-4.27;100.00;93023.84;2063668;28;20125;-85
2023/04/06 02:49:24;;;;;;;9.32;6.22;;;;;;;-4.45;100.00;93016.22;2056628;28;20098;-85
2023/04/06 02:50:29;;;;;;;7.57;6.18;;;;;;;-4.49;100.00;93011.97;2056636;28;20092;-85
2023/04/06 02:51:31;;;;;;;10.23;6.15;;;;;;;-4.50;100.00;93018.28;2063624;28;20038;-86
2023/04/06 02:52:32;;;;;;;7.45;5.90;;;;;;;-4.53;100.00;93019.69;2055684;28;20411;-83
2023/04/06 02:53:39;;;;;;;6.82;5.47;;;;;;;-4.41;100.00;93014.50;2055632;28;20034;-84
2023/04/06 02:54:41;;;;;;;7.60;6.28;;;;;;;-4.50;100.00;93013.06;2056879;28;20030;-86
2023/04/06 02:55:42;;;;;;;7.72;6.47;;;;;;;-4.50;100.00;93020.91;2057103;28;20118;-85
2023/04/06 02:56:43;;;;;;;6.55;5.68;;;;;;;-4.57;100.00;93008.38;2063816;28;20526;-84
2023/04/06 02:57:47;;;;;;;7.03;5.60;;;;;;;-4.60;100.00;93014.25;2069409;28;20032;-85
2023/04/06 02:58:49;;;;;;;7.47;5.78;;;;;;;-4.51;100.00;93006.34;2056771;28;20050;-85
2023/04/06 02:59:50;;;;;;;7.40;5.78;;;;;;;-4.69;100.00;93010.97;2056059;28;20054;-85
2023/04/06 03:00:51;;;;;;;8.25;6.18;;;;;;;-4.60;100.00;93015.00;2061975;28;20084;-85
2023/04/06 03:01:52;;;;;;;7.30;6.28;;;;;;;-4.56;100.00;93004.69;2071024;28;20101;-86
2023/04/06 03:02:53;;;;;;;6.55;5.95;;;;;;;-4.56;100.00;93008.06;2063372;28;20412;-85
2023/04/06 03:04:00;;;;;;;7.05;6.07;;;;;;;-4.53;100.00;93008.50;2056531;28;20110;-85
2023/04/06 03:05:07;;;;;;;9.18;6.45;;;;;;;-4.56;100.00;93008.06;2056076;28;20056;-84
2023/04/06 03:06:11;;;;;;;8.35;6.55;;;;;;;-4.61;100.00;93005.66;2049430;28;20046;-83
2023/04/06 03:07:17;;;;;;;10.75;6.53;;;;;;;-4.61;100.00;93002.28;2052642;28;20498;-84
2023/04/06 03:08:22;;;;;;;7.75;5.88;;;;;;;-4.60;100.00;93009.78;2058035;28;20526;-84
2023/04/06 03:09:23;;;;;;;7.03;6.32;;;;;;;-4.60;100.00;93003.81;2057734;28;20034;-84
2023/04/06 03:10:29;;;;;;;7.18;6.05;;;;;;;-4.65;100.00;93011.84;2062216;28;20034;-86
2023/04/06 03:11:35;;;;;;;6.97;6.18;;;;;;;-4.60;100.00;93006.44;2063189;28;20034;-84
2023/04/06 03:12:38;;;;;;;8.80;6.13;;;;;;;-4.61;100.00;92999.66;2041647;28;20036;-84
2023/04/06 03:13:39;;;;;;;7.22;6.40;;;;;;;-4.59;100.00;93015.75;2052929;28;20103;-85
2023/04/06 03:14:40;;;;;;;8.05;6.20;;;;;;;-4.61;100.00;93008.28;2052265;28;20050;-84
2023/04/06 03:16:42;;;;;;;10.38;6.38;;;;;;;-4.77;100.00;93011.81;2072692;23;20043;-74
2023/04/06 03:17:43;;;;;;;7.05;6.32;;;;;;;-4.74;100.00;93008.53;2071845;28;20030;-74
2023/04/06 03:18:46;;;;;;;7.38;6.07;;;;;;;-4.76;100.00;93008.13;2072181;28;20346;-74
2023/04/06 03:19:48;;;;;;;10.20;6.80;;;;;;;-4.77;100.00;93006.59;2081614;28;20022;-74
2023/04/06 03:20:50;;;;;;;9.18;6.45;;;;;;;-4.73;100.00;92999.66;2081008;28;20033;-74
2023/04/06 03:21:51;;;;;;;9.02;6.55;;;;;;;-4.72;100.00;93009.00;2081458;28;20452;-75
2023/04/06 03:22:52;;;;;;;8.00;5.93;;;;;;;-4.69;100.00;93006.50;2081597;28;20060;-75
2023/04/06 03:23:52;;;;;;;9.45;6.57;;;;;;;-4.77;100.00;93004.75;2072558;28;20018;-75
2023/04/06 03:24:53;;;;;;;8.15;6.18;;;;;;;-4.71;100.00;93007.91;2071468;28;20065;-75
2023/04/06 03:25:55;;;;;;;7.75;6.35;;;;;;;-4.76;100.00;93011.47;2074501;28;20022;-75
2023/04/06 03:26:56;;;;;;;6.85;6.05;;;;;;;-4.65;100.00;93007.41;2064446;28;20346;-75
2023/04/06 03:27:57;;;;;;;8.50;5.97;;;;;;;-4.71;100.00;93008.66;2072515;28;20033;-75
2023/04/06 03:28:58;;;;;;;7.30;5.97;;;;;;;-4.72;100.00;93012.38;2080507;28;20056;-75
2023/04/06 03:29:59;;;;;;;9.75;6.40;;;;;;;-4.74;100.00;93011.94;2081652;28;20021;-76
2023/04/06 03:31:00;;;;;;;9.48;6.60;;;;;;;-4.74;100.00;93017.16;2072343;28;20041;-75
2023/04/06 03:32:02;;;;;;;8.48;6.40;;;;;;;-4.78;100.00;93013.66;2071769;28;20535;-75
2023/04/06 03:33:05;;;;;;;8.60;6.35;;;;;;;-4.81;100.00;93009.09;2080455;28;20045;-76
2023/04/06 03:34:06;;;;;;;6.82;5.95;;;;;;;-4.78;100.00;93008.44;2077254;28;20029;-75
2023/04/06 03:35:10;;;;;;;8.60;6.45;;;;;;;-4.75;100.00;93009.63;2081014;28;20044;-73
2023/04/06 03:36:11;;;;;;;10.10;7.03;;;;;;;-4.69;100.00;93011.72;2080900;28;20024;-73
2023/04/06 03:37:12;;;;;;;48.08;38.55;;;;;;;-4.67;100.00;93006.19;2081446;28;20037;-74
2023/04/06 03:38:14;;;;;;;29.25;23.55;;;;;;;-4.79;100.00;93013.97;2080540;28;20087;-74
2023/04/06 03:39:15;;;;;;;15.32;13.30;;;;;;;-4.76;100.00;93010.72;2072570;28;20100;-74
2023/04/06 03:40:17;;;;;;;11.65;8.65;;;;;;;-4.76;100.00;93008.88;2067124;28;20092;-74
2023/04/06 03:41:20;;;;;;;8.93;7.80;;;;;;;-4.78;100.00;93016.28;2078848;28;20030;-74
2023/04/06 03:42:22;;;;;;;8.77;7.38;;;;;;;-4.84;100.00;93015.69;2072513;28;20037;-74
2023/04/06 03:43:23;;;;;;;7.45;6.75;;;;;;;-4.94;100.00;93016.09;2072161;28;20067;-74
2023/04/06 03:44:24;;;;;;;7.70;6.63;;;;;;;-4.96;100.00;93013.06;2080905;28;20041;-75
2023/04/06 03:45:25;;;;;;;8.35;6.13;;;;;;;-5.02;100.00;93001.31;2081046;28;20025;-73
2023/04/06 03:46:26;;;;;;;6.65;5.95;;;;;;;-5.03;100.00;93010.22;2069222;28;20033;-74
2023/04/06 03:47:27;;;;;;;8.13;6.43;;;;;;;-4.92;100.00;93013.16;2068484;28;20034;-74
2023/04/06 03:48:30;;;;;;;7.95;6.20;;;;;;;-4.90;100.00;93006.56;2080042;28;20650;-74
2023/04/06 03:49:31;;;;;;;8.18;6.53;;;;;;;-4.83;100.00;93019.84;2079292;28;20039;-76
2023/04/06 03:50:32;;;;;;;9.90;6.93;;;;;;;-4.83;100.00;93008.63;2080898;28;20025;-75
2023/04/06 03:51:33;;;;;;;8.07;6.13;;;;;;;-4.82;100.00;93013.53;2064338;28;20368;-76
2023/04/06 03:52:36;;;;;;;7.05;6.10;;;;;;;-4.75;100.00;93012.25;2056615;28;20114;-75
2023/04/06 03:53:39;;;;;;;6.63;5.95;;;;;;;-4.72;100.00;93016.81;2081260;28;20360;-76
2023/04/06 03:54:40;;;;;;;8.00;6.18;;;;;;;-4.75;100.00;93014.84;2071972;28;20026;-73
2023/04/06 03:55:44;;;;;;;6.93;6.10;;;;;;;-4.78;100.00;93007.66;2071872;28;20029;-74
2023/04/06 03:56:45;;;;;;;7.57;6.47;;;;;;;-4.76;100.00;93013.34;2072042;28;20106;-73
2023/04/06 03:57:46;;;;;;;7.07;6.18;;;;;;;-4.71;100.00;93011.28;2063919;28;20479;-75
2023/04/06 03:58:50;;;;;;;7.00;6.18;;;;;;;-4.73;100.00;93012.69;2071876;28;20372;-75
2023/04/06 03:59:51;;;;;;;7.78;5.63;;;;;;;-4.74;100.00;93017.16;2072537;28;20034;-75
2023/04/06 04:00:52;;;;;;;8.13;6.40;;;;;;;-4.77;100.00;93023.00;2072543;28;20374;-75
2023/04/06 04:01:53;;;;;;;8.32;6.00;;;;;;;-4.74;100.00;93017.16;2080599;28;20071;-75
2023/04/06 04:02:53;;;;;;;7.63;6.28;;;;;;;-4.85;100.00;93018.63;2081098;28;20403;-74
2023/04/06 04:03:54;;;;;;;9.52;6.25;;;;;;;-4.94;100.00;93018.72;2080834;28;20056;-74
2023/04/06 04:04:55;;;;;;;7.22;5.80;;;;;;;-4.99;100.00;93021.53;2071145;28;20033;-75
2023/04/06 04:05:56;;;;;;;7.90;6.20;;;;;;;-4.98;100.00;93025.63;2070817;28;20038;-74
2023/04/06 04:06:57;;;;;;;7.40;6.32;;;;;;;-4.95;100.00;93024.25;2080263;28;20053;-75
2023/04/06 04:07:59;;;;;;;7.60;6.22;;;;;;;-4.98;100.00;93020.44;2080632;28;20032;-74
2023/04/06 04:09:00;;;;;;;8.20;5.75;;;;;;;-4.90;100.00;93032.63;2080730;28;20063;-75
2023/04/06 04:10:01;;;;;;;8.50;6.15;;;;;;;-4.94;100.00;93026.53;2081051;28;20100;-75
2023/04/06 04:11:03;;;;;;;8.70;6.65;;;;;;;-4.95;100.00;93029.47;2081276;28;20090;-75
2023/04/06 04:12:04;;;;;;;10.15;6.40;;;;;;;-5.08;100.00;93019.00;2069322;28;20492;-76
2023/04/06 04:13:05;;;;;;;7.22;6.53;;;;;;;-5.06;100.00;93022.03;2061760;28;20025;-76
2023/04/06 04:14:06;;;;;;;7.43;5.88;;;;;;;-4.94;100.00;93021.31;2066732;28;20026;-76
2023/04/06 04:15:09;;;;;;;10.18;6.45;;;;;;;-4.88;100.00;93032.28;2067713;28;20033;-75
2023/04/06 04:16:10;;;;;;;7.78;6.13;;;;;;;-4.85;100.00;93024.59;2072116;28;20112;-75
2023/04/06 04:17:11;;;;;;;8.88;6.65;;;;;;;-4.83;100.00;93029.47;2077639;28;20032;-75
2023/04/06 04:18:12;;;;;;;12.50;6.70;;;;;;;-4.94;100.00;93023.91;2075995;28;20813;-76
2023/04/06 04:19:14;;;;;;;9.90;7.13;;;;;;;-4.95;100.00;93030.22;2080328;28;20193;-76
2023/04/06 04:20:16;;;;;;;8.73;7.20;;;;;;;-4.93;100.00;93032.50;2082258;28;20021;-76
2023/04/06 04:21:18;;;;;;;7.82;7.03;;;;;;;-4.89;100.00;93030.78;2077097;28;20021;-75
2023/04/06 04:22:19;;;;;;;12.13;8.23;;;;;;;-4.92;100.00;93034.78;2069445;28;20026;-75
2023/04/06 04:23:20;;;;;;;12.68;7.90;;;;;;;-4.96;100.00;93027.91;2077456;28;20125;-75
2023/04/06 04:24:21;;;;;;;8.55;6.90;;;;;;;-4.95;100.00;93032.81;2084925;28;20033;-75
2023/04/06 04:25:23;;;;;;;10.00;6.88;;;;;;;-4.98;100.00;93030.09;2086072;28;20029;-75
2023/04/06 04:26:24;;;;;;;11.82;7.32;;;;;;;-5.13;100.00;93034.06;2086439;28;20063;-75
2023/04/06 04:27:25;;;;;;;7.80;7.00;;;;;;;-5.15;100.00;93033.59;2078722;28;20361;-75
2023/04/06 04:28:26;;;;;;;8.40;6.80;;;;;;;-5.14;100.00;93040.34;2069988;28;20038;-75
2023/04/06 04:29:27;;;;;;;9.95;7.00;;;;;;;-5.07;100.00;93024.97;2078754;28;20474;-75
2023/04/06 04:30:28;;;;;;;9.30;6.60;;;;;;;-5.12;100.00;93031.13;2086492;28;20056;-74
2023/04/06 04:31:30;;;;;;;8.93;6.65;;;;;;;-5.10;100.00;93034.16;2086178;28;20344;-75
2023/04/06 04:32:32;;;;;;;7.40;6.18;;;;;;;-5.09;100.00;93035.72;2085922;28;20551;-75
2023/04/06 04:33:33;;;;;;;7.47;6.68;;;;;;;-5.07;100.00;93035.38;2086574;28;20025;-77
2023/04/06 04:34:39;;;;;;;8.60;7.45;;;;;;;-5.12;100.00;93038.94;2073970;28;20021;-76
2023/04/06 04:35:40;;;;;;;6.90;6.28;;;;;;;-5.12;100.00;93032.97;2078059;28;20452;-76
2023/04/06 04:36:42;;;;;;;8.30;6.60;;;;;;;-5.13;100.00;93034.81;2076568;28;20026;-76
2023/04/06 04:37:43;;;;;;;7.28;6.45;;;;;;;-5.19;100.00;93033.47;2060734;28;20026;-75
2023/04/06 04:38:44;;;;;;;8.65;6.55;;;;;;;-5.08;100.00;93034.63;2061867;28;20133;-76
2023/04/06 04:39:45;;;;;;;8.85;7.07;;;;;;;-5.22;100.00;93031.53;2084755;28;20028;-76
2023/04/06 04:40:46;;;;;;;7.07;6.32;;;;;;;-5.15;100.00;93036.22;2086916;28;20367;-76
2023/04/06 04:41:47;;;;;;;7.07;6.25;;;;;;;-5.16;100.00;93035.44;2087045;28;20024;-76
2023/04/06 04:42:48;;;;;;;7.68;6.65;;;;;;;-5.13;100.00;93029.59;2087095;28;20037;-75
2023/04/06 04:43:51;;;;;;;6.70;6.10;;;;;;;-5.26;100.00;93035.84;2085912;28;20033;-76
2023/04/06 04:44:52;;;;;;;7.13;6.32;;;;;;;-5.24;100.00;93036.28;2085834;28;20036;-75
2023/04/06 04:45:54;;;;;;;9.07;6.47;;;;;;;-5.19;100.00;93032.72;2077967;28;20038;-76
2023/04/06 04:46:55;;;;;;;7.00;6.13;;;;;;;-5.19;100.00;93036.06;2077578;28;20679;-74
2023/04/06 04:47:56;;;;;;;7.65;6.00;;;;;;;-5.15;100.00;93031.75;2081042;28;20349;-79
2023/04/06 04:48:58;;;;;;;7.18;6.10;;;;;;;-5.16;100.00;93040.66;2077341;28;20030;-76
2023/04/06 04:49:59;;;;;;;7.30;6.45;;;;;;;-5.14;100.00;93032.50;2077381;28;20052;-77
2023/04/06 04:51:01;;;;;;;7.28;6.57;;;;;;;-5.11;100.00;93031.88;2086677;28;20104;-74
2023/04/06 04:52:02;;;;;;;7.47;6.32;;;;;;;-5.14;100.00;93032.50;2086590;28;20023;-77
2023/04/06 04:53:05;;;;;;;8.13;6.57;;;;;;;-5.20;100.00;93029.34;2086323;28;20021;-75
2023/04/06 04:54:06;;;;;;;10.90;6.47;;;;;;;-5.21;100.00;93033.03;2077341;28;20499;-76
2023/04/06 04:55:08;;;;;;;7.97;6.38;;;;;;;-5.13;100.00;93028.84;2077830;28;20037;-78
2023/04/06 04:56:09;;;;;;;7.28;6.35;;;;;;;-5.12;100.00;93036.34;2086370;28;20074;-77
2023/04/06 04:57:10;;;;;;;6.93;6.20;;;;;;;-5.08;100.00;93031.25;2086391;28;20033;-75
2023/04/06 04:58:16;;;;;;;8.45;6.82;;;;;;;-5.08;100.00;93033.88;2086755;28;20032;-77
2023/04/06 04:59:17;;;;;;;8.27;6.47;;;;;;;-5.08;100.00;93039.84;2081376;28;20094;-77
2023/04/06 05:00:18;;;;;;;8.98;6.80;;;;;;;-5.09;100.00;93034.94;2086481;28;20466;-76
2023/04/06 05:01:20;;;;;;;6.97;6.28;;;;;;;-5.12;100.00;93033.72;2076893;28;20038;-76
2023/04/06 05:02:21;;;;;;;7.30;6.47;;;;;;;-5.10;100.00;93033.41;2076346;28;20445;-76
2023/04/06 05:03:25;;;;;;;7.07;6.28;;;;;;;-5.11;100.00;93035.25;2074555;28;20672;-76
2023/04/06 05:04:26;;;;;;;7.10;6.40;;;;;;;-5.03;100.00;93031.06;2076824;28;20021;-76
2023/04/06 05:05:27;;;;;;;9.48;6.60;;;;;;;-5.04;100.00;93031.38;2086989;28;20028;-76
2023/04/06 05:06:28;;;;;;;8.23;6.38;;;;;;;-5.05;100.00;93030.59;2085836;28;20032;-77
2023/04/06 05:07:29;;;;;;;7.78;6.97;;;;;;;-5.13;100.00;93036.66;2077560;28;20547;-76
2023/04/06 05:08:30;;;;;;;6.93;6.22;;;;;;;-5.14;100.00;93042.94;2069313;28;20026;-76